Time;durP1;ratioP1;P1;durP2;ratioP2;P2;SDS_P1;SDS_P2;PMS_P1;PMS_P2;Temp;Humidity;BMP_temperature;BMP_pressure;BME280_temperature;BME280_humidity;BME280_pressure;Samples;Min_cycle;Max_cycle;Signal;HPM_P1;HPM_P2
2021/11/30 00:02:18;;;;;;;1.02;0.63;;;;;;;16.94;55.62;100926.25;4889287;29;20118;-76
2021/11/30 00:04:44;;;;;;;3.47;0.93;;;;;;;16.93;55.25;100914.97;4903653;29;20123;-76
2021/11/30 00:07:09;;;;;;;1.95;0.70;;;;;;;16.93;55.53;100908.94;4936701;29;20032;-76
2021/11/30 00:12:19;;;;;;;1.67;0.70;;;;;;;16.91;55.30;100893.34;4903863;29;20044;-75
2021/11/30 00:14:47;;;;;;;1.65;0.80;;;;;;;16.92;55.27;100895.06;4919465;29;20107;-76
2021/11/30 00:17:14;;;;;;;1.92;0.75;;;;;;;16.93;55.41;100886.38;4919377;29;20035;-76
2021/11/30 00:19:40;;;;;;;4.57;0.88;;;;;;;16.92;55.45;100871.69;4888168;29;20087;-77
2021/11/30 00:22:09;;;;;;;1.60;0.75;;;;;;;16.92;55.34;100869.09;4903665;29;20035;-76
2021/11/30 00:24:35;;;;;;;2.33;0.75;;;;;;;16.92;55.53;100871.69;4936197;29;20024;-77
2021/11/30 00:27:01;;;;;;;2.15;1.00;;;;;;;16.92;55.25;100860.41;4888128;29;20118;-78
2021/11/30 00:29:27;;;;;;;2.25;0.80;;;;;;;16.92;55.30;100860.41;4919394;29;20031;-76
2021/11/30 00:31:54;;;;;;;4.68;0.90;;;;;;;16.92;55.27;100853.47;4903486;29;20038;-76
2021/11/30 00:34:20;;;;;;;4.80;0.98;;;;;;;16.91;55.52;100851.75;4903481;29;20032;-76
2021/11/30 00:36:46;;;;;;;1.92;0.82;;;;;;;16.91;55.08;100851.75;4903636;29;20030;-77
2021/11/30 00:39:11;;;;;;;2.38;1.10;;;;;;;16.92;55.28;100850.00;4919075;29;20059;-76
2021/11/30 00:41:38;;;;;;;1.10;0.60;;;;;;;16.91;55.52;100833.53;4887790;29;20070;-77
2021/11/30 00:44:03;;;;;;;1.67;0.80;;;;;;;16.91;55.29;100832.69;4919628;29;20479;-77
2021/11/30 00:48:57;;;;;;;2.75;1.00;;;;;;;16.91;55.35;100812.75;4936143;29;20422;-77
2021/11/30 00:51:23;;;;;;;1.73;0.70;;;;;;;16.92;55.51;100803.22;4903358;29;20142;-76
2021/11/30 00:53:51;;;;;;;1.80;0.80;;;;;;;16.91;55.53;100797.16;4919405;29;20122;-76
2021/11/30 00:56:17;;;;;;;2.13;0.95;;;;;;;16.91;55.35;100794.56;4918899;29;20039;-76
2021/11/30 00:58:45;;;;;;;1.98;0.93;;;;;;;16.91;55.33;100788.50;4936191;29;20032;-76
2021/11/30 01:01:10;;;;;;;1.77;0.85;;;;;;;16.90;55.53;100774.66;4934752;29;20030;-77
2021/11/30 01:03:36;;;;;;;2.40;0.68;;;;;;;16.91;55.45;100778.97;4935795;29;20058;-76
2021/11/30 01:06:02;;;;;;;2.53;0.80;;;;;;;16.91;55.26;100794.56;4919996;29;20032;-77
2021/11/30 01:08:27;;;;;;;2.25;0.80;;;;;;;16.92;55.35;100795.41;4906963;29;20036;-77
2021/11/30 01:10:53;;;;;;;2.10;0.82;;;;;;;16.91;55.24;100791.97;4922695;29;20050;-78
2021/11/30 01:13:18;;;;;;;2.83;0.80;;;;;;;16.92;55.51;100800.59;4907262;29;20023;-77
2021/11/30 01:15:44;;;;;;;1.45;0.80;;;;;;;16.91;55.67;100812.75;4906768;29;20122;-77
2021/11/30 01:18:10;;;;;;;1.95;0.93;;;;;;;16.90;55.34;100805.84;4938519;29;20023;-76
2021/11/30 01:20:36;;;;;;;1.15;0.70;;;;;;;16.91;55.60;100814.50;4922428;29;20375;-76
2021/11/30 01:23:03;;;;;;;1.75;0.80;;;;;;;16.91;55.53;100811.91;4906806;29;20023;-76
2021/11/30 01:25:28;;;;;;;1.63;0.80;;;;;;;16.89;55.62;100811.03;4907230;29;20032;-75
2021/11/30 01:27:54;;;;;;;1.58;0.80;;;;;;;16.91;55.38;100810.16;4891330;29;20049;-75
2021/11/30 01:30:20;;;;;;;1.77;0.90;;;;;;;16.90;55.33;100800.66;4907088;29;20027;-76
2021/11/30 01:32:47;;;;;;;2.03;0.82;;;;;;;16.91;55.29;100797.16;4922655;29;20027;-76
2021/11/30 01:35:13;;;;;;;2.17;0.90;;;;;;;16.91;55.55;100788.50;4922504;29;20066;-75
2021/11/30 01:37:40;;;;;;;1.98;0.88;;;;;;;16.90;55.54;100792.84;4922877;29;20024;-76
2021/11/30 01:40:08;;;;;;;1.08;0.52;;;;;;;16.91;55.32;100781.56;4938533;29;20079;-76
2021/11/30 01:42:34;;;;;;;3.10;1.08;;;;;;;16.90;55.66;100792.84;4922342;29;20414;-76
2021/11/30 01:45:08;;;;;;;2.88;0.82;;;;;;;16.91;55.63;100783.31;4906562;29;20040;-76
2021/11/30 01:50:05;;;;;;;1.48;0.73;;;;;;;16.90;55.42;100772.06;4922650;29;20063;-76
2021/11/30 01:52:31;;;;;;;1.92;0.90;;;;;;;16.89;55.40;100772.91;4937841;29;20040;-76
2021/11/30 01:54:56;;;;;;;1.90;0.77;;;;;;;16.90;55.34;100772.06;4938150;29;20031;-77
2021/11/30 01:57:24;;;;;;;1.85;0.70;;;;;;;16.89;55.46;100759.91;4890659;29;20034;-76
2021/11/30 01:59:51;;;;;;;1.52;0.80;;;;;;;16.89;55.37;100762.50;4906426;29;20120;-77
2021/11/30 02:02:19;;;;;;;1.30;0.60;;;;;;;16.90;55.55;100760.75;4939064;29;20027;-76
2021/11/30 02:04:46;;;;;;;1.50;0.80;;;;;;;16.91;55.38;100767.72;4937487;29;20031;-77
2021/11/30 02:07:11;;;;;;;1.98;0.80;;;;;;;16.91;55.32;100758.16;4938926;29;20481;-76
2021/11/30 02:09:39;;;;;;;1.13;0.73;;;;;;;16.90;55.33;100753.84;4890645;29;20027;-76
2021/11/30 02:12:05;;;;;;;1.98;0.80;;;;;;;16.90;55.44;100756.47;4906015;29;20040;-76
2021/11/30 02:14:33;;;;;;;1.83;0.80;;;;;;;16.89;55.40;100736.53;4906022;29;20019;-75
2021/11/30 02:16:59;;;;;;;2.05;0.75;;;;;;;16.89;55.53;100731.31;4921436;29;20024;-76
2021/11/30 02:19:25;;;;;;;1.58;0.80;;;;;;;16.90;55.42;100730.47;4921458;29;20114;-77
2021/11/30 02:21:51;;;;;;;2.53;1.10;;;;;;;16.91;55.17;100723.53;4923593;29;20431;-75
2021/11/30 02:24:16;;;;;;;1.58;0.88;;;;;;;16.90;55.66;100720.06;4906869;29;20035;-76
2021/11/30 02:26:42;;;;;;;1.20;0.60;;;;;;;16.90;55.38;100717.47;4907536;29;20394;-76
2021/11/30 02:29:10;;;;;;;3.05;0.90;;;;;;;16.91;55.42;100715.72;4892200;29;20118;-77
2021/11/30 02:31:41;;;;;;;2.15;0.90;;;;;;;16.90;55.61;100701.88;4926652;29;20039;-77
2021/11/30 02:34:07;;;;;;;3.35;0.73;;;;;;;16.90;55.44;100709.66;4944204;29;20122;-77
2021/11/30 02:39:10;;;;;;;1.50;0.80;;;;;;;16.90;55.45;100712.28;4946576;29;20063;-76
2021/11/30 02:41:36;;;;;;;3.15;1.08;;;;;;;16.90;55.28;100704.47;4941657;29;20093;-76
2021/11/30 02:44:03;;;;;;;2.28;1.00;;;;;;;16.90;55.43;100698.38;4908041;29;20076;-76
2021/11/30 02:46:39;;;;;;;1.30;0.70;;;;;;;16.89;55.41;100692.34;4909546;29;20398;-76
2021/11/30 02:49:07;;;;;;;1.42;0.85;;;;;;;16.90;55.59;100701.00;4943806;29;20027;-76
2021/11/30 02:51:34;;;;;;;2.50;1.00;;;;;;;16.89;55.45;100694.09;4941891;29;20059;-77
2021/11/30 02:54:03;;;;;;;2.03;1.00;;;;;;;16.91;55.45;100684.53;4910639;29;20114;-75
2021/11/30 02:56:29;;;;;;;2.40;0.85;;;;;;;16.89;55.47;100686.28;4910028;29;20031;-74
2021/11/30 02:58:56;;;;;;;2.20;1.08;;;;;;;16.88;55.33;100682.81;4940840;29;20063;-78
2021/11/30 03:01:22;;;;;;;2.10;0.90;;;;;;;16.88;55.40;100682.81;4905143;29;20034;-75
2021/11/30 03:03:48;;;;;;;2.42;1.00;;;;;;;16.89;55.24;100687.13;4920592;29;20036;-76
2021/11/30 03:06:13;;;;;;;1.77;1.02;;;;;;;16.89;55.49;100681.09;4920733;29;20087;-76
2021/11/30 03:08:40;;;;;;;1.85;0.80;;;;;;;16.89;55.28;100671.53;4905042;29;20066;-76
2021/11/30 03:11:07;;;;;;;2.40;0.98;;;;;;;16.90;55.13;100667.19;4904724;29;20378;-76
2021/11/30 03:13:33;;;;;;;2.65;1.00;;;;;;;16.89;55.45;100666.34;4936246;29;20028;-76
2021/11/30 03:15:58;;;;;;;2.58;1.10;;;;;;;16.88;55.37;100667.22;4904430;29;20036;-76
2021/11/30 03:18:24;;;;;;;1.50;0.77;;;;;;;16.89;55.52;100658.53;4889222;29;20478;-75
2021/11/30 03:20:49;;;;;;;1.23;0.85;;;;;;;16.88;55.52;100651.63;4904653;29;20150;-75
2021/11/30 03:23:15;;;;;;;2.22;1.00;;;;;;;16.90;55.55;100662.88;4904682;29;20043;-76
2021/11/30 03:25:43;;;;;;;2.95;1.05;;;;;;;16.89;55.22;100655.09;4920284;29;20024;-76
2021/11/30 03:28:11;;;;;;;3.25;1.30;;;;;;;16.90;55.35;100662.00;4904645;29;20027;-76
2021/11/30 03:30:41;;;;;;;2.30;1.05;;;;;;;16.89;55.73;100663.75;4903558;29;20028;-76
2021/11/30 03:35:52;;;;;;;2.88;1.00;;;;;;;16.89;55.73;100662.88;4909709;29;20074;-76
2021/11/30 03:38:17;;;;;;;2.75;1.10;;;;;;;16.89;55.41;100670.69;4935793;29;20110;-76
2021/11/30 03:40:43;;;;;;;2.33;1.00;;;;;;;16.88;55.59;100659.44;4919936;29;20047;-76
2021/11/30 03:43:08;;;;;;;1.77;0.88;;;;;;;16.89;55.44;100655.94;4904053;29;20035;-76
2021/11/30 03:45:34;;;;;;;2.45;1.17;;;;;;;16.88;55.36;100664.63;4920022;29;20035;-76
2021/11/30 03:47:59;;;;;;;1.33;0.98;;;;;;;16.90;55.50;100660.28;4919704;29;20386;-76
2021/11/30 03:50:25;;;;;;;2.40;1.02;;;;;;;16.88;55.48;100654.25;4888506;29;20066;-76
2021/11/30 03:52:51;;;;;;;2.05;1.05;;;;;;;16.90;55.45;100664.59;4904078;29;20032;-76
2021/11/30 03:55:16;;;;;;;2.50;1.25;;;;;;;16.89;55.35;100665.50;4919837;29;20028;-75
2021/11/30 03:57:42;;;;;;;3.03;1.13;;;;;;;16.88;55.59;100651.63;4903917;29;20020;-75
2021/11/30 04:00:10;;;;;;;3.08;1.25;;;;;;;16.89;55.43;100652.50;4935522;29;20035;-76
2021/11/30 04:02:38;;;;;;;2.03;1.17;;;;;;;16.88;55.44;100651.63;4920110;29;20036;-77
2021/11/30 04:05:06;;;;;;;2.60;1.20;;;;;;;16.88;55.39;100654.25;4919534;29;20023;-77
2021/11/30 04:07:31;;;;;;;3.67;1.20;;;;;;;16.88;55.31;100649.03;4936767;29;20027;-77
2021/11/30 04:09:56;;;;;;;2.00;1.08;;;;;;;16.89;55.56;100645.56;4904040;29;20082;-76
2021/11/30 04:12:22;;;;;;;1.88;0.90;;;;;;;16.88;55.44;100643.00;4903866;29;20071;-76
2021/11/30 04:14:47;;;;;;;1.65;1.00;;;;;;;16.88;55.40;100637.78;4888482;29;20038;-76
2021/11/30 04:17:13;;;;;;;2.50;1.08;;;;;;;16.88;55.52;100643.84;4888381;29;20086;-77
2021/11/30 04:19:38;;;;;;;1.80;1.00;;;;;;;16.87;55.70;100644.69;4904676;29;20036;-76
2021/11/30 04:22:03;;;;;;;2.58;1.20;;;;;;;16.88;55.54;100638.66;4889872;29;20406;-76
2021/11/30 04:24:29;;;;;;;3.30;1.20;;;;;;;16.88;55.48;100633.44;4888619;29;20041;-77
2021/11/30 04:26:54;;;;;;;2.70;1.20;;;;;;;16.89;55.49;100634.31;4888334;29;20406;-76
2021/11/30 04:29:19;;;;;;;2.78;1.00;;;;;;;16.88;55.54;100640.38;4904202;29;20023;-76
2021/11/30 04:31:45;;;;;;;2.78;1.20;;;;;;;16.87;55.49;100634.31;4888221;29;20167;-76
2021/11/30 04:34:10;;;;;;;2.65;1.20;;;;;;;16.88;55.40;100617.00;4919974;29;20047;-76
2021/11/30 04:36:36;;;;;;;2.92;1.20;;;;;;;16.88;55.60;100615.25;4887972;29;20171;-76
2021/11/30 04:39:03;;;;;;;2.28;1.20;;;;;;;16.88;55.43;100612.66;4919284;29;20034;-76
2021/11/30 04:41:29;;;;;;;2.78;1.10;;;;;;;16.88;55.43;100610.06;4935714;29;20462;-75
2021/11/30 04:43:55;;;;;;;2.17;1.08;;;;;;;16.88;55.55;100607.47;4903385;29;20040;-75
2021/11/30 04:46:25;;;;;;;2.10;0.95;;;;;;;16.88;55.67;100611.81;4919184;29;20027;-75
2021/11/30 04:48:56;;;;;;;3.08;1.20;;;;;;;16.87;55.47;100608.31;4934649;29;20035;-75
2021/11/30 04:51:21;;;;;;;2.90;1.10;;;;;;;16.88;55.51;100612.66;4918868;29;20034;-76
2021/11/30 04:53:47;;;;;;;3.28;1.10;;;;;;;16.88;55.50;100609.19;4903431;29;20123;-76
2021/11/30 04:56:15;;;;;;;3.17;1.08;;;;;;;16.88;55.64;100609.19;4903313;29;20079;-77
2021/11/30 04:58:42;;;;;;;2.10;1.00;;;;;;;16.87;55.36;100603.13;4918999;29;20078;-82
2021/11/30 05:01:08;;;;;;;2.03;1.00;;;;;;;16.88;55.71;100609.19;4934879;29;20122;-82
2021/11/30 05:03:33;;;;;;;3.40;1.10;;;;;;;16.87;55.41;100608.31;4903111;29;20123;-84
2021/11/30 05:05:59;;;;;;;2.10;1.20;;;;;;;16.87;55.44;100605.72;4903183;29;20042;-82
2021/11/30 05:08:24;;;;;;;2.63;1.13;;;;;;;16.87;55.54;100600.53;4903259;29;20111;-81
2021/11/30 05:10:50;;;;;;;2.70;1.20;;;;;;;16.86;55.59;100599.66;4903442;29;20034;-85
2021/11/30 05:13:15;;;;;;;2.45;1.10;;;;;;;16.86;55.40;100602.25;4903423;29;20024;-84
2021/11/30 05:15:41;;;;;;;2.30;1.08;;;;;;;16.86;55.72;100604.88;4903225;29;20119;-83
2021/11/30 05:18:06;;;;;;;2.85;1.25;;;;;;;16.89;55.70;100606.56;4887583;29;20458;-81
2021/11/30 05:20:32;;;;;;;3.00;1.00;;;;;;;16.91;55.71;100598.75;4918725;29;20028;-84
2021/11/30 05:22:58;;;;;;;2.08;1.00;;;;;;;16.89;55.76;100595.31;4888058;29;20086;-82
2021/11/30 05:25:28;;;;;;;3.00;1.23;;;;;;;16.91;56.00;100601.34;4903115;29;20036;-82
2021/11/30 05:27:54;;;;;;;2.63;1.23;;;;;;;16.92;55.77;100603.06;4903872;29;20031;-80
2021/11/30 05:30:20;;;;;;;3.35;1.05;;;;;;;16.92;55.83;100603.06;4903006;29;20479;-84
2021/11/30 05:32:47;;;;;;;2.45;1.10;;;;;;;16.92;56.02;100613.47;4934601;29;20031;-83
2021/11/30 05:35:12;;;;;;;2.35;1.05;;;;;;;16.92;55.60;100614.34;4934591;29;20024;-80
2021/11/30 05:37:38;;;;;;;1.98;0.98;;;;;;;16.94;56.12;100611.72;4887650;29;20028;-83
2021/11/30 05:40:04;;;;;;;1.77;1.05;;;;;;;16.94;55.95;100611.72;4902980;29;20067;-86
2021/11/30 05:42:30;;;;;;;1.88;0.90;;;;;;;16.94;55.81;100611.72;4903233;29;20035;-85
2021/11/30 05:44:56;;;;;;;2.15;1.10;;;;;;;16.93;56.14;100608.25;4903227;29;20486;-86
2021/11/30 05:47:21;;;;;;;2.03;0.90;;;;;;;16.95;55.94;100613.44;4934690;29;20100;-85
2021/11/30 05:49:47;;;;;;;2.15;1.13;;;;;;;16.95;55.95;100616.91;4888030;29;20075;-87
2021/11/30 05:52:12;;;;;;;1.73;1.00;;;;;;;16.95;56.12;100609.09;4887408;29;20493;-86
2021/11/30 05:54:40;;;;;;;1.80;1.05;;;;;;;16.95;56.19;100603.06;4921842;29;20030;-85
2021/11/30 05:57:08;;;;;;;2.13;1.15;;;;;;;16.96;56.06;100603.03;4891563;29;20557;-85
2021/11/30 05:59:38;;;;;;;2.88;1.23;;;;;;;16.96;56.12;100605.66;4922142;29;20118;-84
2021/11/30 06:02:06;;;;;;;2.67;1.40;;;;;;;16.96;56.12;100607.34;4907053;29;20036;-85
2021/11/30 06:04:31;;;;;;;1.83;1.02;;;;;;;16.97;56.14;100596.94;4938060;29;20107;-83
2021/11/30 06:06:56;;;;;;;2.35;1.00;;;;;;;16.97;56.27;100599.56;4922029;29;20123;-87
2021/11/30 06:09:22;;;;;;;1.90;0.90;;;;;;;16.98;56.10;100598.66;4890767;29;20050;-85
2021/11/30 06:11:47;;;;;;;2.58;1.08;;;;;;;16.97;56.25;100596.94;4890782;29;20126;-86
2021/11/30 06:14:13;;;;;;;3.15;1.08;;;;;;;16.98;56.28;100590.00;4890860;29;20028;-87
2021/11/30 06:16:38;;;;;;;2.25;0.95;;;;;;;16.98;56.08;100597.81;4921988;29;20041;-87
2021/11/30 06:19:04;;;;;;;2.83;1.08;;;;;;;16.98;56.27;100596.06;4905952;29;20035;-87
2021/11/30 06:21:29;;;;;;;4.88;2.33;;;;;;;16.98;56.40;100590.88;4890431;29;20035;-83
2021/11/30 06:23:55;;;;;;;8.20;3.15;;;;;;;16.99;56.65;100604.75;4891728;29;20042;-87
2021/11/30 06:26:20;;;;;;;5.53;2.10;;;;;;;16.98;56.47;100596.06;4921452;29;20028;-78
2021/11/30 06:28:46;;;;;;;7.45;2.95;;;;;;;16.99;56.57;100595.19;4921549;29;20044;-80
2021/11/30 06:31:11;;;;;;;7.10;3.10;;;;;;;16.98;56.67;100590.88;4921546;29;20038;-84
2021/11/30 06:33:37;;;;;;;7.70;2.65;;;;;;;17.00;56.49;100599.50;4889851;29;20386;-81
2021/11/30 06:36:04;;;;;;;7.15;2.78;;;;;;;17.00;56.70;100596.91;4921425;29;20124;-79
2021/11/30 06:38:29;;;;;;;8.80;2.85;;;;;;;17.00;56.58;100599.50;4921240;29;20024;-83
2021/11/30 06:40:55;;;;;;;7.40;2.75;;;;;;;17.02;56.81;100602.09;4889654;29;20055;-79
2021/11/30 06:43:20;;;;;;;8.88;3.00;;;;;;;17.02;56.86;100615.09;4921051;29;20036;-79
2021/11/30 06:45:46;;;;;;;8.82;3.05;;;;;;;17.02;56.76;100608.16;4889835;29;20093;-83
2021/11/30 06:48:12;;;;;;;7.50;3.03;;;;;;;17.03;57.00;100616.84;4938306;29;20035;-81
2021/11/30 06:50:37;;;;;;;9.02;3.45;;;;;;;17.03;56.79;100612.50;4921603;29;20036;-79
2021/11/30 06:53:03;;;;;;;6.53;2.95;;;;;;;17.02;56.81;100604.69;4921009;29;20028;-80
2021/11/30 06:55:29;;;;;;;8.55;3.00;;;;;;;17.02;56.87;100608.16;4905617;29;20051;-84
2021/11/30 06:57:54;;;;;;;6.90;2.88;;;;;;;17.03;57.08;100622.91;4920835;29;20027;-83
2021/11/30 07:00:22;;;;;;;8.25;3.17;;;;;;;17.03;56.85;100622.91;4905489;29;20118;-82
2021/11/30 07:02:50;;;;;;;8.85;2.70;;;;;;;17.05;57.04;100628.09;4921423;29;20031;-83
2021/11/30 07:08:46;;;;;;;6.75;3.20;;;;;;;17.05;56.99;100622.88;4921243;29;20360;-82
2021/11/30 07:10:40;;;;;;;8.18;2.80;;;;;;;17.05;57.05;100625.47;4903528;29;20039;-82
2021/11/30 07:13:28;;;;;;;7.50;2.92;;;;;;;17.05;57.00;100631.53;4891946;29;20043;-82
2021/11/30 07:15:55;;;;;;;7.90;3.00;;;;;;;17.05;57.25;100641.94;4936516;29;20039;-83
2021/11/30 07:18:22;;;;;;;8.38;2.92;;;;;;;17.06;57.17;100627.19;4936260;29;20390;-82
2021/11/30 07:20:48;;;;;;;7.05;2.47;;;;;;;17.06;57.30;100629.78;4920457;29;20483;-82
2021/11/30 07:23:14;;;;;;;6.60;2.85;;;;;;;17.06;57.19;100630.66;4888956;29;20063;-83
2021/11/30 07:25:39;;;;;;;5.43;2.78;;;;;;;17.07;57.23;100628.91;4920669;29;20027;-80
2021/11/30 07:28:05;;;;;;;6.38;2.60;;;;;;;17.06;57.19;100622.84;4937613;29;20023;-80
2021/11/30 07:30:31;;;;;;;7.57;3.03;;;;;;;17.08;57.28;100627.19;4904534;29;20030;-78
2021/11/30 07:32:56;;;;;;;5.30;2.50;;;;;;;17.08;57.50;100640.19;4904484;29;20031;-78
2021/11/30 07:35:23;;;;;;;6.65;2.58;;;;;;;17.09;57.34;100640.16;4904432;29;20031;-81
2021/11/30 07:37:52;;;;;;;6.30;2.42;;;;;;;17.08;57.27;100641.03;4904746;29;20028;-81
2021/11/30 07:40:18;;;;;;;7.65;3.20;;;;;;;17.08;57.33;100643.63;4919897;29;20120;-80
2021/11/30 07:42:44;;;;;;;6.03;2.30;;;;;;;17.09;57.18;100641.88;4920093;29;20039;-81
2021/11/30 07:45:11;;;;;;;6.70;2.63;;;;;;;17.10;57.29;100641.88;4920125;29;20099;-80
2021/11/30 07:47:37;;;;;;;5.85;2.45;;;;;;;17.10;57.29;100638.44;4904235;29;20037;-78
2021/11/30 07:50:04;;;;;;;6.63;2.50;;;;;;;17.10;57.11;100641.88;4904316;29;20036;-81
2021/11/30 07:52:31;;;;;;;5.32;2.50;;;;;;;17.10;57.18;100644.47;4935576;29;20034;-79
2021/11/30 07:55:03;;;;;;;4.95;2.22;;;;;;;17.10;56.81;100636.69;4888798;29;20051;-78
2021/11/30 07:57:29;;;;;;;6.05;2.75;;;;;;;17.09;57.25;100642.75;4905090;29;20035;-79
2021/11/30 07:59:54;;;;;;;5.97;2.22;;;;;;;17.11;57.49;100646.19;4888747;29;20035;-78
2021/11/30 08:02:19;;;;;;;5.30;2.40;;;;;;;17.11;57.29;100646.19;4904397;29;20039;-84
2021/11/30 08:04:46;;;;;;;4.72;2.30;;;;;;;17.12;57.28;100647.94;4937251;29;20058;-83
2021/11/30 08:07:15;;;;;;;5.65;2.30;;;;;;;17.12;57.27;100654.88;4904698;29;20040;-85
2021/11/30 08:09:41;;;;;;;5.90;2.10;;;;;;;17.11;57.36;100653.13;4936885;29;20032;-83
2021/11/30 08:12:07;;;;;;;4.82;2.15;;;;;;;17.20;57.46;100653.91;4888284;29;20036;-85
2021/11/30 08:14:32;;;;;;;6.38;2.72;;;;;;;17.30;57.31;100644.25;4904153;29;20422;-85
2021/11/30 08:16:58;;;;;;;6.43;2.42;;;;;;;17.34;57.44;100639.91;4903434;29;20028;-85
2021/11/30 08:19:24;;;;;;;7.30;2.50;;;;;;;17.36;57.17;100641.59;4904009;29;20126;-85
2021/11/30 08:21:50;;;;;;;5.65;2.63;;;;;;;17.38;57.32;100645.03;4904019;29;20390;-85
2021/11/30 08:24:15;;;;;;;6.72;2.28;;;;;;;17.39;57.35;100644.16;4888354;29;20028;-81
2021/11/30 08:26:41;;;;;;;4.70;2.47;;;;;;;17.39;56.95;100640.69;4904025;29;20553;-82
2021/11/30 08:29:07;;;;;;;8.20;2.50;;;;;;;17.38;57.18;100652.00;4920054;29;20039;-85
2021/11/30 08:31:32;;;;;;;5.00;2.20;;;;;;;17.37;57.37;100648.50;4889100;29;20027;-85
2021/11/30 08:34:00;;;;;;;7.03;2.20;;;;;;;17.39;57.32;100649.34;4905071;29;20034;-85
2021/11/30 08:36:27;;;;;;;6.18;2.53;;;;;;;17.39;57.39;100645.91;4904836;29;20031;-83
2021/11/30 08:38:52;;;;;;;5.13;2.20;;;;;;;17.40;57.29;100656.28;4890127;29;20055;-85
2021/11/30 08:41:26;;;;;;;4.35;2.08;;;;;;;17.41;57.18;100660.59;4889163;29;20135;-85
2021/11/30 08:43:52;;;;;;;5.90;2.42;;;;;;;17.41;56.84;100649.34;4905385;29;20043;-85
2021/11/30 08:46:20;;;;;;;4.47;2.00;;;;;;;17.41;57.18;100655.41;4889391;29;20036;-86
2021/11/30 08:49:02;;;;;;;5.05;2.38;;;;;;;17.40;57.20;100660.63;4920480;29;20372;-86
2021/11/30 08:51:30;;;;;;;5.45;2.17;;;;;;;17.39;57.17;100670.16;4891336;29;20031;-86
2021/11/30 08:53:55;;;;;;;4.85;2.25;;;;;;;17.39;57.04;100664.94;4889114;29;20032;-85
2021/11/30 08:56:21;;;;;;;5.68;2.28;;;;;;;17.40;57.15;100674.50;4919410;29;20390;-86
2021/11/30 08:58:50;;;;;;;5.18;2.25;;;;;;;17.39;57.13;100672.75;4887957;29;20032;-85
2021/11/30 09:01:19;;;;;;;6.55;2.47;;;;;;;17.40;57.23;100684.06;4904107;29;20451;-85
2021/11/30 09:03:45;;;;;;;4.65;1.92;;;;;;;17.39;57.25;100685.75;4919741;29;20039;-86
2021/11/30 09:06:11;;;;;;;5.53;2.47;;;;;;;17.38;57.06;100694.47;4919686;29;20031;-84
2021/11/30 09:08:36;;;;;;;4.10;2.10;;;;;;;17.40;57.21;100694.47;4903660;29;20122;-82
2021/11/30 09:11:02;;;;;;;5.35;2.10;;;;;;;17.40;57.08;100695.31;4887811;29;20398;-85
2021/11/30 09:13:29;;;;;;;6.35;2.10;;;;;;;17.40;56.88;100695.31;4936338;29;20463;-85
2021/11/30 09:15:55;;;;;;;4.20;2.17;;;;;;;17.40;56.88;100708.31;4903269;29;20039;-84
2021/11/30 09:18:20;;;;;;;4.40;2.10;;;;;;;17.39;56.98;100709.19;4936519;29;20028;-83
2021/11/30 09:20:47;;;;;;;4.75;2.03;;;;;;;17.39;56.86;100706.56;4935465;29;20036;-83
2021/11/30 09:23:15;;;;;;;4.20;1.90;;;;;;;17.39;56.90;100711.78;4919600;29;20032;-86
2021/11/30 09:25:40;;;;;;;5.05;2.38;;;;;;;17.39;56.78;100714.38;4888434;29;20039;-85
2021/11/30 09:28:06;;;;;;;3.40;1.80;;;;;;;17.39;56.74;100709.19;4889128;29;20032;-84
2021/11/30 09:30:35;;;;;;;4.60;1.77;;;;;;;17.39;56.83;100706.56;4907512;29;20042;-84
2021/11/30 09:33:00;;;;;;;3.92;1.75;;;;;;;17.40;56.71;100712.66;4907391;29;20107;-84
2021/11/30 09:35:26;;;;;;;4.47;1.83;;;;;;;17.40;56.76;100715.25;4907083;29;20067;-82
2021/11/30 09:37:56;;;;;;;4.68;1.92;;;;;;;17.40;56.71;100723.91;4907255;29;20043;-86
2021/11/30 09:40:25;;;;;;;4.15;2.03;;;;;;;17.41;56.73;100712.63;4939617;29;20086;-85
2021/11/30 09:42:51;;;;;;;5.25;2.03;;;;;;;17.40;56.63;100721.31;4938755;29;20040;-85
2021/11/30 09:45:17;;;;;;;3.83;1.88;;;;;;;17.41;56.65;100724.78;4906742;29;20047;-84
2021/11/30 09:47:43;;;;;;;3.22;1.58;;;;;;;17.41;56.66;100725.63;4922728;29;20458;-85
2021/11/30 09:50:13;;;;;;;3.40;1.58;;;;;;;17.41;56.70;100728.22;4908495;29;20030;-87
2021/11/30 09:52:38;;;;;;;4.28;1.90;;;;;;;17.42;56.66;100729.09;4924618;29;20035;-86
2021/11/30 09:55:05;;;;;;;2.95;1.77;;;;;;;17.42;56.72;100726.47;4922759;29;20028;-84
2021/11/30 09:57:31;;;;;;;3.17;1.60;;;;;;;17.41;56.76;100723.03;4922820;29;20028;-87
2021/11/30 09:59:56;;;;;;;3.45;1.67;;;;;;;17.41;56.76;100724.78;4938699;29;20183;-86
2021/11/30 10:02:22;;;;;;;3.72;1.55;;;;;;;17.41;56.81;100723.03;4906938;29;20470;-87
2021/11/30 10:04:47;;;;;;;3.78;1.55;;;;;;;17.42;56.54;100722.16;4906967;29;20042;-86
2021/11/30 10:07:12;;;;;;;3.88;1.70;;;;;;;17.44;56.73;100727.34;4907615;29;20028;-87
2021/11/30 10:09:38;;;;;;;5.10;1.60;;;;;;;17.42;56.89;100735.19;4938170;29;20090;-87
2021/11/30 10:12:07;;;;;;;5.55;1.80;;;;;;;17.42;56.47;100735.19;4922666;29;20364;-86
2021/11/30 10:14:38;;;;;;;4.30;1.80;;;;;;;17.41;56.85;100730.84;4939154;29;20095;-85
2021/11/30 10:17:26;;;;;;;3.50;1.75;;;;;;;17.42;56.81;100735.19;4938575;29;20047;-88
2021/11/30 10:19:59;;;;;;;3.15;1.50;;;;;;;17.42;56.66;100736.88;4938415;29;20034;-88
2021/11/30 10:22:40;;;;;;;3.40;1.50;;;;;;;17.42;56.48;100740.38;4937946;29;20023;-87
2021/11/30 10:25:10;;;;;;;4.47;1.52;;;;;;;17.42;56.68;100744.69;4937946;29;20035;-88
2021/11/30 10:27:35;;;;;;;3.55;1.58;;;;;;;17.41;56.46;100741.25;4938513;29;20028;-87
2021/11/30 10:30:14;;;;;;;4.28;1.70;;;;;;;17.42;56.42;100737.78;4906385;29;20046;-88
2021/11/30 10:32:43;;;;;;;4.07;1.67;;;;;;;17.42;56.68;100735.19;4938877;29;20037;-88
2021/11/30 10:35:09;;;;;;;4.03;1.67;;;;;;;17.44;56.52;100737.75;4906794;29;20028;-87
2021/11/30 10:37:40;;;;;;;3.78;1.45;;;;;;;17.44;56.31;100729.94;4906277;29;20115;-88
2021/11/30 10:40:08;;;;;;;3.72;1.33;;;;;;;17.43;56.23;100723.88;4937246;29;20052;-85
2021/11/30 10:42:34;;;;;;;2.58;1.40;;;;;;;17.44;56.93;100717.81;4921511;29;20092;-86
2021/11/30 10:44:59;;;;;;;3.75;1.60;;;;;;;17.45;56.41;100718.66;4890758;29;20036;-86
2021/11/30 10:47:27;;;;;;;3.33;1.70;;;;;;;17.44;56.46;100727.34;4905923;29;20498;-89
2021/11/30 10:50:11;;;;;;;2.75;1.42;;;;;;;17.44;56.08;100729.94;4921763;29;20127;-88
2021/11/30 10:52:42;;;;;;;3.92;1.77;;;;;;;17.43;56.54;100718.69;4938737;29;20074;-88
2021/11/30 10:55:11;;;;;;;3.30;1.38;;;;;;;17.43;56.42;100726.47;4937486;29;20047;-87
2021/11/30 10:57:37;;;;;;;2.53;1.30;;;;;;;17.43;55.95;100721.28;4937304;29;20039;-88
2021/11/30 11:00:26;;;;;;;3.38;1.40;;;;;;;17.43;56.27;100716.06;4905755;29;20028;-85
2021/11/30 11:03:12;;;;;;;2.47;1.10;;;;;;;17.43;56.36;100712.63;4921504;29;20023;-87
2021/11/30 11:05:44;;;;;;;2.88;1.33;;;;;;;17.43;56.27;100715.22;4937906;29;20031;-87
2021/11/30 11:08:15;;;;;;;2.78;1.15;;;;;;;17.42;56.43;100721.28;4938319;29;20028;-86
2021/11/30 11:10:45;;;;;;;2.28;1.20;;;;;;;17.41;56.64;100712.63;4936794;29;20032;-86
2021/11/30 11:13:22;;;;;;;2.47;1.42;;;;;;;17.42;56.33;100716.97;4938109;29;20038;-88
2021/11/30 11:15:51;;;;;;;2.92;1.38;;;;;;;17.41;56.42;100698.75;4936936;29;20059;-87
2021/11/30 11:18:17;;;;;;;2.80;1.20;;;;;;;17.41;56.35;100706.56;4921023;29;20038;-83
2021/11/30 11:20:43;;;;;;;2.55;1.08;;;;;;;17.42;56.25;100710.88;4905292;29;20032;-87
2021/11/30 11:23:08;;;;;;;3.05;1.50;;;;;;;17.40;56.31;100705.72;4905230;29;20038;-87
2021/11/30 11:25:33;;;;;;;3.58;1.20;;;;;;;17.41;56.36;100709.16;4905362;29;20497;-87
2021/11/30 11:28:03;;;;;;;4.00;1.33;;;;;;;17.41;56.32;100703.97;4905825;29;20024;-88
2021/11/30 11:30:29;;;;;;;2.92;1.30;;;;;;;17.40;56.37;100705.72;4921230;29;20027;-87
2021/11/30 11:32:54;;;;;;;2.25;1.27;;;;;;;17.40;56.30;100708.31;4905509;29;20035;-86
2021/11/30 11:35:23;;;;;;;2.80;1.30;;;;;;;17.40;56.19;100703.13;4890036;29;20028;-85
2021/11/30 11:37:48;;;;;;;2.28;1.08;;;;;;;17.42;56.21;100703.06;4906039;29;20055;-87
2021/11/30 11:40:14;;;;;;;1.88;1.15;;;;;;;17.41;56.20;100712.63;4905026;29;20090;-87